createdAt,value
2022-07-26T00:01:33.185Z,25.80
2022-07-26T00:05:37.566Z,25.80
2022-07-26T00:09:42.755Z,25.80
2022-07-26T00:13:50.530Z,25.70
2022-07-26T00:17:53.354Z,25.70
2022-07-26T00:22:14.542Z,25.60
2022-07-26T00:26:17.563Z,25.50
2022-07-26T00:30:20.442Z,25.50
2022-07-26T00:34:24.702Z,25.30
2022-07-26T00:38:27.618Z,25.30
2022-07-26T00:42:30.582Z,25.30
2022-07-26T00:46:33.645Z,25.30
2022-07-26T00:50:36.715Z,25.30
2022-07-26T00:54:45.580Z,25.20
2022-07-26T00:58:48.478Z,25.10
2022-07-26T01:02:51.543Z,25.10
2022-07-26T01:06:55.153Z,25.00
2022-07-26T01:10:59.034Z,25.00
2022-07-26T01:15:02.146Z,25.00
2022-07-26T01:19:05.498Z,24.90
2022-07-26T01:23:08.962Z,24.80
2022-07-26T01:27:12.349Z,24.80
2022-07-26T01:31:16.164Z,24.80
2022-07-26T01:35:19.361Z,24.70
2022-07-26T01:39:22.528Z,24.60
2022-07-26T01:43:25.408Z,24.50
2022-07-26T01:47:30.939Z,24.50
2022-07-26T01:51:34.273Z,24.50
2022-07-26T01:55:37.240Z,24.40
2022-07-26T01:59:40.157Z,24.20
2022-07-26T02:03:43.014Z,24.10
2022-07-26T02:07:45.788Z,24.00
2022-07-26T02:11:49.473Z,24.00
2022-07-26T02:15:52.792Z,24.00
2022-07-26T02:19:55.987Z,23.90
2022-07-26T02:23:58.922Z,23.90
2022-07-26T02:28:01.937Z,23.80
2022-07-26T02:32:05.579Z,23.80
2022-07-26T02:36:09.217Z,23.70
2022-07-26T02:40:17.036Z,23.70
2022-07-26T02:44:23.038Z,23.60
2022-07-26T02:48:25.958Z,23.50
2022-07-26T02:52:28.876Z,23.40
2022-07-26T02:56:31.656Z,23.30
2022-07-26T03:00:34.439Z,23.20
2022-07-26T03:04:37.219Z,23.20
2022-07-26T03:08:40.011Z,23.10
2022-07-26T03:12:42.922Z,23.20
2022-07-26T03:16:46.551Z,23.10
2022-07-26T03:20:50.318Z,23.10
2022-07-26T03:24:53.183Z,23.10
2022-07-26T03:28:56.765Z,23.00
2022-07-26T03:32:59.567Z,23.00
2022-07-26T03:37:02.403Z,22.90
2022-07-26T03:41:05.341Z,22.80
2022-07-26T03:45:08.610Z,22.80
2022-07-26T03:49:16.401Z,22.80
2022-07-26T03:53:19.908Z,22.80
2022-07-26T03:57:23.585Z,23.00
2022-07-26T04:01:32.431Z,23.00
2022-07-26T04:05:36.122Z,23.20
2022-07-26T04:09:38.970Z,23.10
2022-07-26T04:13:41.931Z,23.10
2022-07-26T04:17:45.546Z,23.10
2022-07-26T04:21:48.303Z,23.00
2022-07-26T04:25:51.391Z,22.90
2022-07-26T04:29:54.364Z,22.60
2022-07-26T04:33:57.973Z,22.40
2022-07-26T04:38:02.335Z,22.20
2022-07-26T04:42:05.170Z,22.00
2022-07-26T04:46:11.023Z,21.90
2022-07-26T04:50:13.981Z,21.90
2022-07-26T04:54:20.827Z,21.90
2022-07-26T04:58:23.786Z,21.90
2022-07-26T05:02:27.164Z,22.00
2022-07-26T05:06:30.013Z,22.00
2022-07-26T05:10:38.066Z,22.10
2022-07-26T05:14:41.080Z,22.30
2022-07-26T05:18:49.371Z,22.30
2022-07-26T05:22:53.107Z,22.40
2022-07-26T05:26:58.626Z,22.50
2022-07-26T05:31:01.663Z,22.60
2022-07-26T05:35:06.465Z,22.90
2022-07-26T05:39:12.845Z,23.00
2022-07-26T05:43:18.976Z,23.00
2022-07-26T05:47:21.689Z,23.20
2022-07-26T05:51:24.474Z,23.30
2022-07-26T05:55:27.272Z,23.60
2022-07-26T05:59:30.126Z,23.90
2022-07-26T06:03:33.112Z,24.10
2022-07-26T06:07:36.124Z,24.30
2022-07-26T06:11:38.961Z,24.40
2022-07-26T06:15:43.110Z,24.50
2022-07-26T06:19:47.911Z,24.80
2022-07-26T06:23:51.466Z,25.00
2022-07-26T06:27:54.381Z,25.20
2022-07-26T06:31:57.404Z,25.70
2022-07-26T06:36:00.646Z,25.90
2022-07-26T06:40:04.028Z,26.10
2022-07-26T06:44:07.044Z,26.30
2022-07-26T06:48:09.926Z,26.50
2022-07-26T06:52:12.857Z,26.80
2022-07-26T06:56:18.704Z,27.20
2022-07-26T07:00:21.986Z,27.60
2022-07-26T07:04:25.042Z,27.60
2022-07-26T07:08:27.886Z,27.70
2022-07-26T07:12:31.857Z,28.00
2022-07-26T07:16:34.857Z,28.20
2022-07-26T07:20:39.800Z,28.30
2022-07-26T07:24:43.349Z,28.50
2022-07-26T07:28:46.439Z,28.70
2022-07-26T07:32:51.489Z,28.70
2022-07-26T07:36:54.452Z,29.00
2022-07-26T07:40:57.804Z,29.20
2022-07-26T07:45:00.637Z,29.50
2022-07-26T07:49:04.665Z,29.70
2022-07-26T07:53:07.912Z,29.80
2022-07-26T07:57:10.742Z,29.80
2022-07-26T08:01:14.057Z,29.90
2022-07-26T08:05:17.267Z,30.10
2022-07-26T08:09:20.208Z,30.20
2022-07-26T08:13:24.101Z,30.00
2022-07-26T08:17:26.995Z,30.20
2022-07-26T08:21:31.645Z,30.30
2022-07-26T08:25:34.731Z,30.60
2022-07-26T08:29:37.794Z,30.80
2022-07-26T08:33:41.015Z,31.00
2022-07-26T08:37:49.478Z,31.30
2022-07-26T08:41:53.096Z,31.50
2022-07-26T08:46:02.673Z,31.30
2022-07-26T08:50:06.077Z,31.20
2022-07-26T08:54:10.119Z,31.30
2022-07-26T08:58:13.893Z,31.50
2022-07-26T09:02:18.249Z,31.40
2022-07-26T09:06:22.991Z,31.50
2022-07-26T09:10:38.982Z,31.80
2022-07-26T09:14:43.634Z,32.20
2022-07-26T09:18:46.624Z,32.20
2022-07-26T09:23:08.921Z,32.40
2022-07-26T09:27:16.791Z,32.90
2022-07-26T09:31:23.460Z,32.90
2022-07-26T09:40:01.056Z,32.90
2022-07-26T09:44:23.879Z,32.90
2022-07-26T09:48:52.238Z,33.00
2022-07-26T09:53:10.673Z,33.20
2022-07-26T09:57:16.856Z,33.10
2022-07-26T10:01:20.184Z,33.00
2022-07-26T10:05:23.288Z,33.10
2022-07-26T10:09:33.235Z,33.30
2022-07-26T10:13:36.290Z,33.50
2022-07-26T10:17:41.874Z,33.90
2022-07-26T10:21:44.732Z,34.10
2022-07-26T10:25:48.434Z,34.20
2022-07-26T10:29:51.344Z,34.30
2022-07-26T10:33:55.588Z,34.50
2022-07-26T10:38:05.823Z,35.00
2022-07-26T10:42:10.345Z,35.10
2022-07-26T10:46:16.472Z,35.00
2022-07-26T10:50:33.708Z,34.80
2022-07-26T10:54:59.881Z,34.90
2022-07-26T10:59:04.464Z,35.10
2022-07-26T11:03:07.548Z,35.40
2022-07-26T11:07:10.806Z,35.40
2022-07-26T11:11:14.549Z,35.30
2022-07-26T11:15:18.928Z,35.30
2022-07-26T11:19:24.893Z,35.30
2022-07-26T11:23:29.577Z,35.40
2022-07-26T11:27:32.493Z,35.70
2022-07-26T11:31:51.457Z,35.90
2022-07-26T11:36:03.386Z,35.50
2022-07-26T11:40:06.663Z,35.50
2022-07-26T11:44:20.922Z,35.60
2022-07-26T11:48:24.141Z,35.70
2022-07-26T11:52:31.609Z,35.60
2022-07-26T11:56:34.871Z,35.70
2022-07-26T12:00:37.897Z,35.90
2022-07-26T12:04:43.325Z,36.10
2022-07-26T12:08:55.693Z,36.40
2022-07-26T12:13:15.293Z,36.30
2022-07-26T12:17:18.546Z,36.20
2022-07-26T12:21:21.724Z,36.10
2022-07-26T12:25:29.164Z,36.20
2022-07-26T12:29:36.336Z,35.90
2022-07-26T12:33:49.539Z,36.00
2022-07-26T12:37:53.786Z,36.20
2022-07-26T12:41:56.775Z,36.20
2022-07-26T12:45:59.661Z,36.30
2022-07-26T12:50:03.990Z,36.40
2022-07-26T12:54:07.073Z,36.60
2022-07-26T12:58:10.054Z,36.60
2022-07-26T13:02:13.315Z,36.40
2022-07-26T13:06:16.213Z,36.40
2022-07-26T13:10:36.020Z,36.30
2022-07-26T13:14:40.284Z,36.50
2022-07-26T13:18:43.108Z,36.80
2022-07-26T13:22:46.087Z,37.20
2022-07-26T13:26:49.181Z,37.50
2022-07-26T13:30:52.115Z,37.50
2022-07-26T13:34:55.613Z,37.50
2022-07-26T13:38:58.601Z,37.50
2022-07-26T13:43:01.608Z,37.50
2022-07-26T13:47:04.627Z,37.30
2022-07-26T13:51:08.599Z,37.20
2022-07-26T13:55:11.528Z,36.90
2022-07-26T13:59:14.928Z,36.70
2022-07-26T14:03:18.136Z,36.40
2022-07-26T14:07:21.554Z,36.30
2022-07-26T14:11:24.680Z,36.00
2022-07-26T14:15:27.635Z,36.10
2022-07-26T14:19:30.542Z,36.20
2022-07-26T14:23:33.629Z,36.60
2022-07-26T14:27:36.605Z,36.70
2022-07-26T14:31:40.050Z,36.80
2022-07-26T14:35:44.150Z,37.00
2022-07-26T14:39:47.362Z,37.10
2022-07-26T14:43:55.556Z,37.40
2022-07-26T14:47:59.007Z,37.50
2022-07-26T14:52:02.230Z,37.80
2022-07-26T14:56:05.335Z,38.00
2022-07-26T15:00:11.762Z,37.90
2022-07-26T15:04:16.613Z,37.90
2022-07-26T15:08:19.442Z,37.70
2022-07-26T15:12:22.327Z,37.60
2022-07-26T15:16:26.272Z,37.50
2022-07-26T15:20:29.578Z,37.20
2022-07-26T15:24:36.415Z,37.30
2022-07-26T15:28:42.363Z,37.30
2022-07-26T15:32:45.724Z,37.40
2022-07-26T15:36:50.780Z,37.60
2022-07-26T15:40:53.872Z,37.30
2022-07-26T15:44:56.825Z,37.00
2022-07-26T15:48:59.666Z,36.90
2022-07-26T15:53:28.297Z,36.70
2022-07-26T15:57:31.150Z,36.50
2022-07-26T16:01:34.899Z,37.00
2022-07-26T16:05:37.860Z,37.80
2022-07-26T16:09:40.873Z,37.50
2022-07-26T16:13:43.864Z,38.00
2022-07-26T16:17:46.870Z,38.90
2022-07-26T16:21:52.239Z,39.50
2022-07-26T16:25:55.199Z,40.20
2022-07-26T16:29:58.198Z,41.00
2022-07-26T16:34:01.708Z,41.40
2022-07-26T16:38:04.701Z,41.60
2022-07-26T16:42:07.729Z,42.20
2022-07-26T16:46:10.587Z,42.90
2022-07-26T16:50:13.445Z,43.30
2022-07-26T16:54:28.109Z,43.50
2022-07-26T16:58:31.124Z,43.40
2022-07-26T17:02:34.238Z,43.10
2022-07-26T17:06:37.161Z,43.10
2022-07-26T17:10:42.615Z,43.20
2022-07-26T17:14:46.048Z,43.20
2022-07-26T17:18:50.386Z,42.80
2022-07-26T17:22:53.951Z,42.70
2022-07-26T17:26:57.368Z,42.90
2022-07-26T17:31:00.074Z,42.40
2022-07-26T17:35:03.097Z,42.10
2022-07-26T17:39:06.005Z,41.90
2022-07-26T17:43:10.957Z,41.50
2022-07-26T17:47:28.001Z,40.90
2022-07-26T17:51:33.220Z,39.50
2022-07-26T17:55:36.055Z,38.30
2022-07-26T17:59:42.090Z,37.60
2022-07-26T18:03:45.399Z,37.00
2022-07-26T18:07:48.335Z,36.50
2022-07-26T18:11:54.634Z,36.40
2022-07-26T18:16:00.804Z,35.90
2022-07-26T18:20:09.701Z,35.50
2022-07-26T18:24:17.251Z,35.00
2022-07-26T18:28:49.676Z,34.60
2022-07-26T18:32:52.655Z,34.30
2022-07-26T18:36:58.443Z,33.90
2022-07-26T18:41:02.462Z,33.60
2022-07-26T18:45:06.410Z,33.30
2022-07-26T18:49:15.782Z,33.00
2022-07-26T18:53:26.169Z,32.90
2022-07-26T18:57:28.975Z,32.70
2022-07-26T19:01:33.558Z,32.60
2022-07-26T19:05:37.001Z,32.50
2022-07-26T19:09:39.890Z,32.40
2022-07-26T19:13:58.573Z,32.20
2022-07-26T19:18:10.900Z,32.00
2022-07-26T19:26:57.675Z,31.80
2022-07-26T19:31:03.675Z,31.70
2022-07-26T19:35:07.483Z,31.70
2022-07-26T19:39:13.367Z,31.60
2022-07-26T19:43:16.683Z,31.50
2022-07-26T19:47:21.837Z,31.40
2022-07-26T19:51:24.781Z,31.20
2022-07-26T19:55:32.570Z,31.00
2022-07-26T19:59:46.886Z,30.90
2022-07-26T20:03:50.409Z,30.80
2022-07-26T20:07:53.272Z,30.70
2022-07-26T20:11:56.994Z,30.70
2022-07-26T20:16:00.044Z,30.60
2022-07-26T20:20:07.348Z,30.50
2022-07-26T20:24:14.152Z,30.30
2022-07-26T20:28:17.709Z,30.30
2022-07-26T20:32:24.896Z,30.30
2022-07-26T20:36:29.297Z,30.10
2022-07-26T20:40:34.650Z,30.00
2022-07-26T20:44:41.926Z,29.90
2022-07-26T20:49:19.067Z,29.90
2022-07-26T20:53:34.351Z,29.80
2022-07-26T20:57:41.322Z,29.60
2022-07-26T21:01:45.537Z,29.50
2022-07-26T21:05:49.303Z,29.40
2022-07-26T21:09:53.419Z,29.30
2022-07-26T21:13:58.797Z,29.20
2022-07-26T21:18:23.600Z,29.10
2022-07-26T21:22:26.634Z,29.00
2022-07-26T21:26:36.391Z,28.80
2022-07-26T21:30:39.506Z,28.70
2022-07-26T21:34:42.637Z,28.50
2022-07-26T21:39:00.088Z,28.50
2022-07-26T21:43:05.448Z,28.30
2022-07-26T21:47:08.579Z,28.20
2022-07-26T21:51:11.427Z,28.10
2022-07-26T21:55:17.849Z,28.10
2022-07-26T21:59:21.408Z,28.00
2022-07-26T22:03:24.586Z,28.00
2022-07-26T22:12:14.872Z,28.00
